Bookmark and Share
Track history (hours):
 

Cosco Melbourne

Last reported at 2014-Apr-20 04:15 UTC. Time now 2014-Apr-21 12:20 UTC.
Position N 25°12' E 054°52'.

Type: Ship (hazmat cat A). MMSI: 538002366.

NotesDate/timePositionNaut miles runAvg speedWind from/ knotsBaromVisibWave heightAir tempDewpointWater temp
2014-Apr-20 04:15N 25°12' E 054°52'15 2.6
2014-Apr-19 22:26N 25°02' E 055°04'0 0.0
2014-Apr-19 21:31N 25°02' E 055°04'0 0.0
2014-Apr-19 20:28N 25°02' E 055°04'0 0.0
2014-Apr-19 19:15N 25°02' E 055°04'0 0.0
2014-Apr-19 18:33N 25°02' E 055°04'0 0.0
2014-Apr-19 17:30N 25°02' E 055°04'0 0.0
2014-Apr-19 16:32N 25°02' E 055°04'0 0.0
2014-Apr-19 15:32N 25°02' E 055°04'0 0.0
2014-Apr-19 14:33N 25°02' E 055°04'2 0.2
2014-Apr-19 04:29N 25°00' E 055°04'0 0.0
2014-Apr-19 03:25N 25°00' E 055°04'0 0.0
2014-Apr-19 02:31N 25°00' E 055°04'0 0.0
2014-Apr-19 01:33N 25°00' E 055°04'0 0.0
2014-Apr-19 00:33N 25°00' E 055°04'0 0.0
2014-Apr-18 23:30N 25°00' E 055°04'0 0.0
2014-Apr-18 22:26N 25°00' E 055°04'0 0.0
2014-Apr-18 21:32N 25°00' E 055°04'0 0.0
2014-Apr-18 20:31N 25°00' E 055°04'0 0.0
2014-Apr-18 19:31N 25°00' E 055°04'0 0.0
2014-Apr-18 16:05N 25°00' E 055°04'0 0.0
2014-Apr-18 15:32N 25°00' E 055°04'0 0.0
2014-Apr-18 14:23N 25°00' E 055°04'0 0.0
2014-Apr-18 13:25N 25°00' E 055°04'0 0.0
2014-Apr-18 12:10N 25°00' E 055°04'0 0.0
2014-Apr-18 11:18N 25°00' E 055°04'0 0.0
2014-Apr-17 21:03N 24°60' E 055°04'3 5.3
2014-Apr-17 20:33N 25°02' E 055°02'8 7.4
2014-Apr-17 19:27N 25°07' E 054°55'3 2.9
2014-Apr-17 18:26N 25°08' E 054°52'0 0.0
2014-Apr-17 17:32N 25°08' E 054°52'0 0.0
2014-Apr-17 16:28N 25°08' E 054°52'0 0.0
2014-Apr-17 15:25N 25°08' E 054°52'0 0.0
2014-Apr-17 14:33N 25°08' E 054°52'0 0.0
2014-Apr-17 13:33N 25°08' E 054°52'0 0.1
2014-Apr-17 12:30N 25°08' E 054°52'0 0.1
2014-Apr-17 11:29N 25°08' E 054°52'0 0.0
2014-Apr-17 10:33N 25°08' E 054°52'9 8.6
2014-Apr-17 09:33N 25°01' E 054°46'1111.1
2014-Apr-17 08:33N 24°53' E 054°38'5 4.6
2014-Apr-17 07:29N 24°48' E 054°39'0 0.0
2014-Apr-17 06:29N 24°48' E 054°39'0 0.0
2014-Apr-17 05:28N 24°48' E 054°39'0 0.0
2014-Apr-17 04:31N 24°48' E 054°39'0 0.0
2014-Apr-17 03:25N 24°48' E 054°39'0 0.0
2014-Apr-17 02:24N 24°48' E 054°39'0 0.0
2014-Apr-17 00:20N 24°48' E 054°39'0 0.0
2014-Apr-16 23:32N 24°48' E 054°39'0 0.1
2014-Apr-16 22:32N 24°48' E 054°39'6 6.6
2014-Apr-16 21:33N 24°54' E 054°36'9 9.2
2014-Apr-16 20:33N 25°01' E 054°30'1313.0
2014-Apr-16 19:33N 25°12' E 054°21'1312.6
2014-Apr-16 18:29N 25°21' E 054°10'1112.2
2014-Apr-16 17:33N 25°27' E 053°59'1212.1
2014-Apr-16 16:33N 25°32' E 053°48'  
2014-Apr-13 02:33N 26°09' E 050°46'0 0.0
2014-Apr-12 22:31N 26°09' E 050°46'0 0.0
2014-Apr-12 21:33N 26°09' E 050°46'0 0.1
2014-Apr-12 20:33N 26°09' E 050°46'0 0.0
2014-Apr-12 19:33N 26°09' E 050°46'0 0.0
2014-Apr-12 18:33N 26°09' E 050°46'0 0.1
2014-Apr-12 17:34N 26°09' E 050°46'0 0.0
2014-Apr-12 16:33N 26°09' E 050°46'0 0.0
2014-Apr-12 15:33N 26°09' E 050°46'0 0.0
2014-Apr-12 14:31N 26°09' E 050°46'0 0.0
2014-Apr-12 03:23N 26°09' E 050°46'  

Dump ship's entire track history

sailing weather and tide predictions

Cosco Melbourne — V7IF5 — position and weather